Mixcoatl — XCRY8 — position and weather

sailwx.info

Track history (hours):
 
Tides and Currents Weather Stations Pressure Air Temp Water Temp Dewpoint Dewpoint Depression Visibility Wind Speed Wind Dir Waves Ship Positions

Mixcoatl

Last reported at 2018-Apr-20 16:28 UTC. Time now 2018-Apr-20 16:32 UTC.
Position N 20°31' W 086°57'.

Length 40 m; draft 1.5 m.

Type: Ship. MMSI: 345110010.

Date/timePositionNaut miles runAvg speedWind from/ knotsBaromVisibWave heightAir tempDewpointWater temp
2018-Apr-20 16:28N 20°31' W 086°57'3 7.0
2018-Apr-20 16:00N 20°33' W 086°60'2 0.6
2018-Apr-20 12:33N 20°33' W 087°02'118.6
2018-Apr-20 12:30N 20°32' W 087°01'4 5.7
2018-Apr-20 11:48N 20°29' W 086°59'0 0.9
2018-Apr-20 11:30N 20°29' W 086°59'3 0.1
2018-Apr-19 17:37N 20°31' W 086°57'0 1.7
2018-Apr-19 17:31N 20°31' W 086°57'4 2.7
2018-Apr-19 15:50N 20°33' W 087°01'413.6
2018-Apr-19 15:30N 20°31' W 086°57'4 2.3
2018-Apr-19 13:38N 20°33' W 087°01'216.8
2018-Apr-19 13:31N 20°32' W 086°59'2 4.6
2018-Apr-19 13:00N 20°31' W 086°57'0 0.0
2018-Apr-19 12:30N 20°31' W 086°57'0 0.0
2018-Apr-19 12:00N 20°31' W 086°57'0 0.1
2018-Apr-19 04:36N 20°31' W 086°57'0 0.0
2018-Apr-19 04:30N 20°31' W 086°57'0 0.0
2018-Apr-19 04:00N 20°31' W 086°57'4 7.4
2018-Apr-19 03:30N 20°33' W 086°60'1 1.3
2018-Apr-19 02:23N 20°34' W 087°01'512.7
2018-Apr-19 02:00N 20°31' W 086°57'0 0.1
2018-Apr-19 01:30N 20°31' W 086°57'5 3.2
2018-Apr-18 23:54N 20°34' W 087°01'512.4
2018-Apr-18 23:29N 20°31' W 086°57'0 0.1
2018-Apr-18 23:00N 20°31' W 086°57'0 0.0
2018-Apr-18 22:30N 20°31' W 086°57'0 0.0
2018-Apr-18 22:00N 20°31' W 086°57'0 0.0
2018-Apr-18 21:30N 20°31' W 086°57'0 0.0
2018-Apr-18 21:00N 20°31' W 086°57'0 0.0
2018-Apr-18 20:30N 20°31' W 086°57'4 2.5
2018-Apr-18 18:48N 20°33' W 087°01'413.9
2018-Apr-18 18:30N 20°31' W 086°57'4 2.6
2018-Apr-18 16:50N 20°33' W 087°01'413.4
2018-Apr-18 16:30N 20°31' W 086°57'0 0.1
2018-Apr-18 14:14N 20°31' W 086°57'0 1.5
2018-Apr-18 14:00N 20°31' W 086°57'0 0.0
2018-Apr-18 13:30N 20°31' W 086°57'0 0.6
2018-Apr-18 12:41N 20°31' W 086°57'1 0.1
2018-Apr-17 22:09N 20°31' W 086°58'1 5.4
2018-Apr-17 22:00N 20°31' W 086°57'0 0.0
2018-Apr-17 21:30N 20°31' W 086°57'0 0.0
2018-Apr-17 20:59N 20°31' W 086°57'0 0.1
2018-Apr-17 20:30N 20°31' W 086°57'0 0.0
2018-Apr-17 18:36N 20°31' W 086°57'0 0.5
2018-Apr-17 18:30N 20°31' W 086°57'5 2.9
2018-Apr-17 16:52N 20°34' W 087°01'513.0
2018-Apr-17 16:30N 20°31' W 086°57'5 2.8
2018-Apr-17 14:50N 20°34' W 087°01'514.1
2018-Apr-17 14:30N 20°31' W 086°57'0 0.1
2018-Apr-17 14:00N 20°31' W 086°57'0 0.0
2018-Apr-17 13:24N 20°31' W 086°57'0 0.1
2018-Apr-17 13:00N 20°31' W 086°57'4 2.1
2018-Apr-17 11:07N 20°33' W 087°00'218.8
2018-Apr-17 11:00N 20°32' W 086°59'2 0.3
2018-Apr-17 04:47N 20°31' W 086°57'4 3.1
2018-Apr-17 03:22N 20°34' W 087°00'411.9
2018-Apr-17 03:00N 20°31' W 086°57'0 0.0
2018-Apr-17 02:30N 20°31' W 086°57'0 0.1
2018-Apr-17 02:00N 20°31' W 086°57'0 0.1
2018-Apr-17 01:30N 20°31' W 086°57'0 0.1
2018-Apr-17 01:00N 20°31' W 086°57'0 0.0
2018-Apr-17 00:30N 20°31' W 086°57'0 0.0
2018-Apr-17 00:00N 20°31' W 086°57'4 2.2
2018-Apr-16 22:25N 20°33' W 087°00'4 8.5
2018-Apr-16 22:00N 20°31' W 086°57'0 0.1
2018-Apr-16 21:30N 20°31' W 086°57'0 0.0
2018-Apr-16 21:01N 20°31' W 086°57'0 0.0
2018-Apr-16 20:31N 20°31' W 086°57'4 7.4
2018-Apr-16 20:01N 20°32' W 087°01'3 1.0
2018-Apr-16 16:37N 20°31' W 086°57'0 1.5
2018-Apr-16 16:30N 20°31' W 086°57'4 7.9
2018-Apr-16 15:59N 20°34' W 087°00'1 1.1
2018-Apr-16 14:51N 20°34' W 087°02'515.0
2018-Apr-16 14:30N 20°31' W 086°57'1 1.1
2018-Apr-16 14:00N 20°31' W 086°57'1 1.0
2018-Apr-16 13:28N 20°31' W 086°57'0 0.0
2018-Apr-16 13:00N 20°31' W 086°57'4 7.3
2018-Apr-16 12:30N 20°33' W 086°60'1 0.5
2018-Apr-16 11:12N 20°33' W 087°00'316.9
2018-Apr-16 11:00N 20°31' W 086°58'  
2018-Apr-13 23:52N 20°33' W 086°59'3 8.6
2018-Apr-13 23:30N 20°31' W 086°57'0 0.1
2018-Apr-13 23:00N 20°31' W 086°57'0 0.0
2018-Apr-13 22:30N 20°31' W 086°57'0 0.0
2018-Apr-13 22:00N 20°31' W 086°57'0 0.0
2018-Apr-13 21:30N 20°31' W 086°57'0 0.2
2018-Apr-13 21:00N 20°31' W 086°57'2 3.4
2018-Apr-13 20:30N 20°32' W 086°58'2 1.0
2018-Apr-13 18:44N 20°33' W 086°60'314.7
2018-Apr-13 18:30N 20°31' W 086°57'4 7.6
2018-Apr-13 18:00N 20°34' W 086°60'1 1.1
2018-Apr-13 16:53N 20°34' W 087°01'512.0
2018-Apr-13 16:30N 20°31' W 086°57'5 1.8
2018-Apr-13 13:53N 20°34' W 087°01'512.3
2018-Apr-13 13:31N 20°31' W 086°57'0 0.0
2018-Apr-13 13:00N 20°31' W 086°57'0 0.0
2018-Apr-13 12:31N 20°31' W 086°57'0 0.7
2018-Apr-13 12:00N 20°31' W 086°57'0 0.0
2018-Apr-13 05:58N 20°31' W 086°57'1 1.3
2018-Apr-13 05:30N 20°31' W 086°57'0 0.0
2018-Apr-13 05:00N 20°31' W 086°57'0 0.0
2018-Apr-13 04:30N 20°31' W 086°57'0 0.0
2018-Apr-13 04:00N 20°31' W 086°57'0 0.0
2018-Apr-13 03:30N 20°31' W 086°57'0 0.0
2018-Apr-13 03:00N 20°31' W 086°57'1 1.2
2018-Apr-13 02:30N 20°31' W 086°57'0 0.0
2018-Apr-13 02:00N 20°31' W 086°57'0 0.1
2018-Apr-13 01:30N 20°31' W 086°57'4 7.7
2018-Apr-13 01:00N 20°33' W 087°01'1 0.5
2018-Apr-12 23:52N 20°33' W 087°01'412.6
2018-Apr-12 23:30N 20°31' W 086°57'0 0.1
2018-Apr-12 23:00N 20°31' W 086°57'0 0.0
2018-Apr-12 22:30N 20°31' W 086°57'0 0.0
2018-Apr-12 21:56N 20°31' W 086°57'0 0.0
2018-Apr-12 21:24N 20°31' W 086°57'3 6.5
2018-Apr-12 21:00N 20°29' W 086°59'510.8
2018-Apr-12 20:30N 20°34' W 087°01'0 0.1
2018-Apr-12 17:52N 20°33' W 087°01'3 1.3
2018-Apr-12 15:12N 20°32' W 086°58'3 1.6
2018-Apr-12 13:03N 20°33' W 087°01'117.5
2018-Apr-12 13:00N 20°32' W 087°01'4 8.6
2018-Apr-12 12:30N 20°29' W 086°59'0 0.0
2018-Apr-12 12:00N 20°29' W 086°59'0 0.2
2018-Apr-12 11:30N 20°29' W 086°59'2 0.3
2018-Apr-12 02:07N 20°31' W 086°57'0 0.4
2018-Apr-12 01:59N 20°31' W 086°57'0 0.0
2018-Apr-12 01:31N 20°31' W 086°57'3 5.0
2018-Apr-12 01:00N 20°29' W 086°59'6 2.9
2018-Apr-11 22:56N 20°34' W 087°01'512.0
2018-Apr-11 22:30N 20°31' W 086°57'1 1.5
2018-Apr-11 22:00N 20°31' W 086°58'2 3.5
2018-Apr-11 21:23N 20°29' W 086°59'5 1.8
2018-Apr-11 18:49N 20°33' W 087°00'412.0
2018-Apr-11 18:30N 20°31' W 086°57'4 7.4
2018-Apr-11 18:00N 20°33' W 087°00'1 1.1
2018-Apr-11 16:41N 20°33' W 087°02'317.8
2018-Apr-11 16:31N 20°31' W 086°60'3 5.0
2018-Apr-11 16:00N 20°29' W 086°59'0 0.0
2018-Apr-11 15:30N 20°29' W 086°59'0 0.0
2018-Apr-11 15:00N 20°29' W 086°59'2 3.9
2018-Apr-11 14:30N 20°30' W 086°60'3 3.4
2018-Apr-11 13:31N 20°33' W 087°02'017.8
2018-Apr-11 13:30N 20°33' W 087°01'5 8.2
2018-Apr-11 12:53N 20°29' W 086°59'0 0.7
2018-Apr-11 12:30N 20°29' W 086°59'0 0.1
2018-Apr-11 12:00N 20°29' W 086°59'3 5.1
2018-Apr-11 11:30N 20°31' W 086°57'0 0.0
2018-Apr-11 03:31N 20°31' W 086°57'0 0.4
2018-Apr-11 03:31N 20°31' W 086°57'0 0.0
2018-Apr-11 03:00N 20°31' W 086°57'0 0.0
2018-Apr-11 02:31N 20°31' W 086°57'0 0.0
2018-Apr-11 02:00N 20°31' W 086°57'0 0.1
2018-Apr-11 01:30N 20°31' W 086°57'3 6.7
2018-Apr-11 01:00N 20°33' W 086°60'1 0.9
2018-Apr-10 23:50N 20°34' W 087°01'413.1
2018-Apr-10 23:30N 20°31' W 086°57'0 0.1
2018-Apr-10 23:00N 20°31' W 086°57'0 0.0
2018-Apr-10 22:30N 20°31' W 086°57'3 5.1
2018-Apr-10 22:00N 20°29' W 086°59'4 9.0
2018-Apr-10 21:30N 20°33' W 087°01'1 0.4
2018-Apr-10 19:52N 20°33' W 087°01'412.0
2018-Apr-10 19:30N 20°31' W 086°57'5 3.0
2018-Apr-10 17:53N 20°34' W 087°01'512.7
2018-Apr-10 17:30N 20°31' W 086°57'3 5.5
2018-Apr-10 17:00N 20°33' W 086°59'  
Track history (hours):
 
Tides and Currents Weather Stations Pressure Air Temp Water Temp Dewpoint Dewpoint Depression Visibility Wind Speed Wind Dir Waves Ship Positions

Mixcoatl

Last reported at 2018-Apr-20 16:28 UTC. Time now 2018-Apr-20 16:32 UTC.
Position N 20°31' W 086°57'.

Length 40 m; draft 1.5 m.

Type: Ship. MMSI: 345110010.

Date/timePositionNaut miles runAvg speedWind from/ knotsBaromVisibWave heightAir tempDewpointWater temp
2018-Apr-20 16:28N 20°31' W 086°57'3 7.0
2018-Apr-20 16:00N 20°33' W 086°60'2 0.6
2018-Apr-20 12:33N 20°33' W 087°02'118.6
2018-Apr-20 12:30N 20°32' W 087°01'4 5.7
2018-Apr-20 11:48N 20°29' W 086°59'0 0.9
2018-Apr-20 11:30N 20°29' W 086°59'3 0.1
2018-Apr-19 17:37N 20°31' W 086°57'0 1.7
2018-Apr-19 17:31N 20°31' W 086°57'4 2.7
2018-Apr-19 15:50N 20°33' W 087°01'413.6
2018-Apr-19 15:30N 20°31' W 086°57'4 2.3
2018-Apr-19 13:38N 20°33' W 087°01'216.8
2018-Apr-19 13:31N 20°32' W 086°59'2 4.6
2018-Apr-19 13:00N 20°31' W 086°57'0 0.0
2018-Apr-19 12:30N 20°31' W 086°57'0 0.0
2018-Apr-19 12:00N 20°31' W 086°57'0 0.1
2018-Apr-19 04:36N 20°31' W 086°57'0 0.0
2018-Apr-19 04:30N 20°31' W 086°57'0 0.0
2018-Apr-19 04:00N 20°31' W 086°57'4 7.4
2018-Apr-19 03:30N 20°33' W 086°60'1 1.3
2018-Apr-19 02:23N 20°34' W 087°01'512.7
2018-Apr-19 02:00N 20°31' W 086°57'0 0.1
2018-Apr-19 01:30N 20°31' W 086°57'5 3.2
2018-Apr-18 23:54N 20°34' W 087°01'512.4
2018-Apr-18 23:29N 20°31' W 086°57'0 0.1
2018-Apr-18 23:00N 20°31' W 086°57'0 0.0
2018-Apr-18 22:30N 20°31' W 086°57'0 0.0
2018-Apr-18 22:00N 20°31' W 086°57'0 0.0
2018-Apr-18 21:30N 20°31' W 086°57'0 0.0
2018-Apr-18 21:00N 20°31' W 086°57'0 0.0
2018-Apr-18 20:30N 20°31' W 086°57'4 2.5
2018-Apr-18 18:48N 20°33' W 087°01'413.9
2018-Apr-18 18:30N 20°31' W 086°57'4 2.6
2018-Apr-18 16:50N 20°33' W 087°01'413.4
2018-Apr-18 16:30N 20°31' W 086°57'0 0.1
2018-Apr-18 14:14N 20°31' W 086°57'0 1.5
2018-Apr-18 14:00N 20°31' W 086°57'0 0.0
2018-Apr-18 13:30N 20°31' W 086°57'0 0.6
2018-Apr-18 12:41N 20°31' W 086°57'1 0.1
2018-Apr-17 22:09N 20°31' W 086°58'1 5.4
2018-Apr-17 22:00N 20°31' W 086°57'0 0.0
2018-Apr-17 21:30N 20°31' W 086°57'0 0.0
2018-Apr-17 20:59N 20°31' W 086°57'0 0.1
2018-Apr-17 20:30N 20°31' W 086°57'0 0.0
2018-Apr-17 18:36N 20°31' W 086°57'0 0.5
2018-Apr-17 18:30N 20°31' W 086°57'5 2.9
2018-Apr-17 16:52N 20°34' W 087°01'513.0
2018-Apr-17 16:30N 20°31' W 086°57'5 2.8
2018-Apr-17 14:50N 20°34' W 087°01'514.1
2018-Apr-17 14:30N 20°31' W 086°57'0 0.1
2018-Apr-17 14:00N 20°31' W 086°57'0 0.0
2018-Apr-17 13:24N 20°31' W 086°57'0 0.1
2018-Apr-17 13:00N 20°31' W 086°57'4 2.1
2018-Apr-17 11:07N 20°33' W 087°00'218.8
2018-Apr-17 11:00N 20°32' W 086°59'2 0.3
2018-Apr-17 04:47N 20°31' W 086°57'4 3.1
2018-Apr-17 03:22N 20°34' W 087°00'411.9
2018-Apr-17 03:00N 20°31' W 086°57'0 0.0
2018-Apr-17 02:30N 20°31' W 086°57'0 0.1
2018-Apr-17 02:00N 20°31' W 086°57'0 0.1
2018-Apr-17 01:30N 20°31' W 086°57'0 0.1
2018-Apr-17 01:00N 20°31' W 086°57'0 0.0
2018-Apr-17 00:30N 20°31' W 086°57'0 0.0
2018-Apr-17 00:00N 20°31' W 086°57'4 2.2
2018-Apr-16 22:25N 20°33' W 087°00'4 8.5
2018-Apr-16 22:00N 20°31' W 086°57'0 0.1
2018-Apr-16 21:30N 20°31' W 086°57'0 0.0
2018-Apr-16 21:01N 20°31' W 086°57'0 0.0
2018-Apr-16 20:31N 20°31' W 086°57'4 7.4
2018-Apr-16 20:01N 20°32' W 087°01'3 1.0
2018-Apr-16 16:37N 20°31' W 086°57'0 1.5
2018-Apr-16 16:30N 20°31' W 086°57'4 7.9
2018-Apr-16 15:59N 20°34' W 087°00'1 1.1
2018-Apr-16 14:51N 20°34' W 087°02'515.0
2018-Apr-16 14:30N 20°31' W 086°57'1 1.1
2018-Apr-16 14:00N 20°31' W 086°57'1 1.0
2018-Apr-16 13:28N 20°31' W 086°57'0 0.0
2018-Apr-16 13:00N 20°31' W 086°57'4 7.3
2018-Apr-16 12:30N 20°33' W 086°60'1 0.5
2018-Apr-16 11:12N 20°33' W 087°00'316.9
2018-Apr-16 11:00N 20°31' W 086°58'  
2018-Apr-13 23:52N 20°33' W 086°59'3 8.6
2018-Apr-13 23:30N 20°31' W 086°57'0 0.1
2018-Apr-13 23:00N 20°31' W 086°57'0 0.0
2018-Apr-13 22:30N 20°31' W 086°57'0 0.0
2018-Apr-13 22:00N 20°31' W 086°57'0 0.0
2018-Apr-13 21:30N 20°31' W 086°57'0 0.2
2018-Apr-13 21:00N 20°31' W 086°57'2 3.4
2018-Apr-13 20:30N 20°32' W 086°58'2 1.0
2018-Apr-13 18:44N 20°33' W 086°60'314.7
2018-Apr-13 18:30N 20°31' W 086°57'4 7.6
2018-Apr-13 18:00N 20°34' W 086°60'1 1.1
2018-Apr-13 16:53N 20°34' W 087°01'512.0
2018-Apr-13 16:30N 20°31' W 086°57'5 1.8
2018-Apr-13 13:53N 20°34' W 087°01'512.3
2018-Apr-13 13:31N 20°31' W 086°57'0 0.0
2018-Apr-13 13:00N 20°31' W 086°57'0 0.0
2018-Apr-13 12:31N 20°31' W 086°57'0 0.7
2018-Apr-13 12:00N 20°31' W 086°57'0 0.0
2018-Apr-13 05:58N 20°31' W 086°57'1 1.3
2018-Apr-13 05:30N 20°31' W 086°57'0 0.0
2018-Apr-13 05:00N 20°31' W 086°57'0 0.0
2018-Apr-13 04:30N 20°31' W 086°57'0 0.0
2018-Apr-13 04:00N 20°31' W 086°57'0 0.0
2018-Apr-13 03:30N 20°31' W 086°57'0 0.0
2018-Apr-13 03:00N 20°31' W 086°57'1 1.2
2018-Apr-13 02:30N 20°31' W 086°57'0 0.0
2018-Apr-13 02:00N 20°31' W 086°57'0 0.1
2018-Apr-13 01:30N 20°31' W 086°57'4 7.7
2018-Apr-13 01:00N 20°33' W 087°01'1 0.5
2018-Apr-12 23:52N 20°33' W 087°01'412.6
2018-Apr-12 23:30N 20°31' W 086°57'0 0.1
2018-Apr-12 23:00N 20°31' W 086°57'0 0.0
2018-Apr-12 22:30N 20°31' W 086°57'0 0.0
2018-Apr-12 21:56N 20°31' W 086°57'0 0.0
2018-Apr-12 21:24N 20°31' W 086°57'3 6.5
2018-Apr-12 21:00N 20°29' W 086°59'510.8
2018-Apr-12 20:30N 20°34' W 087°01'0 0.1
2018-Apr-12 17:52N 20°33' W 087°01'3 1.3
2018-Apr-12 15:12N 20°32' W 086°58'3 1.6
2018-Apr-12 13:03N 20°33' W 087°01'117.5
2018-Apr-12 13:00N 20°32' W 087°01'4 8.6
2018-Apr-12 12:30N 20°29' W 086°59'0 0.0
2018-Apr-12 12:00N 20°29' W 086°59'0 0.2
2018-Apr-12 11:30N 20°29' W 086°59'2 0.3
2018-Apr-12 02:07N 20°31' W 086°57'0 0.4
2018-Apr-12 01:59N 20°31' W 086°57'0 0.0
2018-Apr-12 01:31N 20°31' W 086°57'3 5.0
2018-Apr-12 01:00N 20°29' W 086°59'6 2.9
2018-Apr-11 22:56N 20°34' W 087°01'512.0
2018-Apr-11 22:30N 20°31' W 086°57'1 1.5
2018-Apr-11 22:00N 20°31' W 086°58'2 3.5
2018-Apr-11 21:23N 20°29' W 086°59'5 1.8
2018-Apr-11 18:49N 20°33' W 087°00'412.0
2018-Apr-11 18:30N 20°31' W 086°57'4 7.4
2018-Apr-11 18:00N 20°33' W 087°00'1 1.1
2018-Apr-11 16:41N 20°33' W 087°02'317.8
2018-Apr-11 16:31N 20°31' W 086°60'3 5.0
2018-Apr-11 16:00N 20°29' W 086°59'0 0.0
2018-Apr-11 15:30N 20°29' W 086°59'0 0.0
2018-Apr-11 15:00N 20°29' W 086°59'2 3.9
2018-Apr-11 14:30N 20°30' W 086°60'3 3.4
2018-Apr-11 13:31N 20°33' W 087°02'017.8
2018-Apr-11 13:30N 20°33' W 087°01'5 8.2
2018-Apr-11 12:53N 20°29' W 086°59'0 0.7
2018-Apr-11 12:30N 20°29' W 086°59'0 0.1
2018-Apr-11 12:00N 20°29' W 086°59'3 5.1
2018-Apr-11 11:30N 20°31' W 086°57'0 0.0
2018-Apr-11 03:31N 20°31' W 086°57'0 0.4
2018-Apr-11 03:31N 20°31' W 086°57'0 0.0
2018-Apr-11 03:00N 20°31' W 086°57'0 0.0
2018-Apr-11 02:31N 20°31' W 086°57'0 0.0
2018-Apr-11 02:00N 20°31' W 086°57'0 0.1
2018-Apr-11 01:30N 20°31' W 086°57'3 6.7
2018-Apr-11 01:00N 20°33' W 086°60'1 0.9
2018-Apr-10 23:50N 20°34' W 087°01'413.1
2018-Apr-10 23:30N 20°31' W 086°57'0 0.1
2018-Apr-10 23:00N 20°31' W 086°57'0 0.0
2018-Apr-10 22:30N 20°31' W 086°57'3 5.1
2018-Apr-10 22:00N 20°29' W 086°59'4 9.0
2018-Apr-10 21:30N 20°33' W 087°01'1 0.4
2018-Apr-10 19:52N 20°33' W 087°01'412.0
2018-Apr-10 19:30N 20°31' W 086°57'5 3.0
2018-Apr-10 17:53N 20°34' W 087°01'512.7
2018-Apr-10 17:30N 20°31' W 086°57'3 5.5
2018-Apr-10 17:00N 20°33' W 086°59'  

Dump ship's entire track history